createdAt,value
2023-01-21T00:00:27.110Z,10.00
2023-01-21T00:01:28.418Z,9.07
2023-01-21T00:02:29.833Z,9.50
2023-01-21T00:03:31.385Z,9.17
2023-01-21T00:04:34.457Z,9.33
2023-01-21T00:05:35.816Z,9.33
2023-01-21T00:06:37.123Z,9.13
2023-01-21T00:07:38.478Z,9.27
2023-01-21T00:08:39.842Z,9.57
2023-01-21T00:09:41.260Z,9.43
2023-01-21T00:10:42.681Z,9.63
2023-01-21T00:11:43.988Z,9.63
2023-01-21T00:12:45.358Z,9.60
2023-01-21T00:13:47.872Z,9.17
2023-01-21T00:14:49.254Z,8.70
2023-01-21T00:15:50.759Z,9.10
2023-01-21T00:16:52.114Z,9.23
2023-01-21T00:17:53.844Z,9.00
2023-01-21T00:18:56.101Z,9.50
2023-01-21T00:19:57.376Z,9.97
2023-01-21T00:20:58.730Z,9.00
2023-01-21T00:22:00.108Z,8.73
2023-01-21T00:23:01.573Z,9.70
2023-01-21T00:24:02.913Z,9.40
2023-01-21T00:25:04.349Z,9.50
2023-01-21T00:26:06.534Z,10.00
2023-01-21T00:27:07.807Z,10.00
2023-01-21T00:28:09.109Z,10.03
2023-01-21T00:29:10.727Z,10.27
2023-01-21T00:30:12.265Z,9.93
2023-01-21T00:31:14.201Z,10.13
2023-01-21T00:32:16.351Z,9.90
2023-01-21T00:33:17.633Z,10.23
2023-01-21T00:34:18.919Z,10.23
2023-01-21T00:35:20.200Z,9.93
2023-01-21T00:36:22.261Z,9.90
2023-01-21T00:37:24.309Z,11.17
2023-01-21T00:38:25.646Z,10.57
2023-01-21T00:39:26.960Z,10.63
2023-01-21T00:40:28.237Z,10.70
2023-01-21T00:41:29.540Z,11.87
2023-01-21T00:42:31.180Z,11.20
2023-01-21T00:43:32.999Z,11.10
2023-01-21T00:44:34.309Z,11.17
2023-01-21T00:45:35.616Z,11.60
2023-01-21T00:46:36.977Z,11.57
2023-01-21T00:47:38.280Z,11.30
2023-01-21T00:48:40.292Z,11.50
2023-01-21T00:49:41.643Z,11.07
2023-01-21T00:50:43.059Z,10.60
2023-01-21T00:51:44.427Z,11.03
2023-01-21T00:52:45.747Z,10.97
2023-01-21T00:53:47.100Z,11.27
2023-01-21T00:54:48.411Z,11.80
2023-01-21T00:55:49.725Z,11.20
2023-01-21T00:56:51.200Z,10.50
2023-01-21T00:57:53.088Z,11.03
2023-01-21T00:58:54.569Z,10.87
2023-01-21T00:59:56.045Z,10.37
2023-01-21T01:01:08.115Z,11.30
2023-01-21T01:02:10.056Z,10.90
2023-01-21T01:03:11.377Z,10.40
2023-01-21T01:04:12.769Z,10.60
2023-01-21T01:05:14.640Z,10.93
2023-01-21T01:06:20.556Z,10.50
2023-01-21T01:07:21.878Z,10.90
2023-01-21T01:08:23.216Z,10.30
2023-01-21T01:09:24.645Z,11.20
2023-01-21T01:10:26.011Z,10.03
2023-01-21T01:11:27.630Z,10.33
2023-01-21T01:12:29.289Z,10.90
2023-01-21T01:13:30.848Z,10.80
2023-01-21T01:14:32.245Z,10.37
2023-01-21T01:15:33.646Z,12.17
2023-01-21T01:16:34.983Z,11.40
2023-01-21T01:17:36.463Z,11.90
2023-01-21T01:18:38.107Z,11.53
2023-01-21T01:19:39.434Z,11.43
2023-01-21T01:20:43.906Z,11.13
2023-01-21T01:21:45.224Z,10.90
2023-01-21T01:22:46.542Z,11.87
2023-01-21T01:23:48.295Z,10.93
2023-01-21T01:24:49.620Z,11.70
2023-01-21T01:25:54.312Z,11.07
2023-01-21T01:26:55.623Z,11.10
2023-01-21T01:27:56.901Z,11.40
2023-01-21T01:28:58.213Z,11.47
2023-01-21T01:29:59.520Z,12.50
2023-01-21T01:31:01.602Z,12.27
2023-01-21T01:32:03.089Z,11.83
2023-01-21T01:33:04.389Z,11.47
2023-01-21T01:34:05.722Z,11.53
2023-01-21T01:35:07.286Z,12.10
2023-01-21T01:36:11.622Z,12.33
2023-01-21T01:37:12.985Z,12.33
2023-01-21T01:38:20.042Z,11.80
2023-01-21T01:39:21.435Z,11.73
2023-01-21T01:40:22.772Z,11.83
2023-01-21T01:41:27.172Z,11.83
2023-01-21T01:42:28.487Z,11.17
2023-01-21T01:43:48.711Z,11.53
2023-01-21T01:45:00.904Z,10.57
2023-01-21T01:46:02.219Z,9.70
2023-01-21T01:47:04.442Z,9.97
2023-01-21T01:48:06.356Z,9.97
2023-01-21T01:49:15.649Z,9.17
2023-01-21T01:50:19.153Z,9.00
2023-01-21T01:51:23.248Z,9.27
2023-01-21T01:52:24.706Z,8.47
2023-01-21T01:53:26.720Z,8.03
2023-01-21T01:54:39.781Z,8.23
2023-01-21T01:55:41.426Z,7.67
2023-01-21T01:56:45.200Z,8.53
2023-01-21T01:57:47.991Z,7.57
2023-01-21T01:58:49.508Z,7.93
2023-01-21T01:59:51.099Z,7.70
2023-01-21T02:00:52.436Z,8.47
2023-01-21T02:01:53.933Z,8.10
2023-01-21T02:03:14.673Z,8.67
2023-01-21T02:04:19.066Z,8.43
2023-01-21T02:05:20.417Z,7.83
2023-01-21T02:06:21.779Z,8.33
2023-01-21T02:07:24.442Z,8.40
2023-01-21T02:08:26.228Z,8.40
2023-01-21T02:09:29.920Z,8.27
2023-01-21T02:10:31.855Z,8.87
2023-01-21T02:11:34.086Z,8.57
2023-01-21T02:12:36.810Z,8.97
2023-01-21T02:13:38.441Z,9.03
2023-01-21T02:14:43.105Z,8.90
2023-01-21T02:15:54.159Z,9.67
2023-01-21T02:17:04.484Z,8.70
2023-01-21T02:18:19.045Z,9.53
2023-01-21T02:19:38.652Z,8.70
2023-01-21T02:20:58.758Z,8.33
2023-01-21T02:22:00.126Z,8.43
2023-01-21T02:23:05.857Z,8.77
2023-01-21T02:24:26.125Z,8.57
2023-01-21T02:25:45.949Z,9.10
2023-01-21T02:26:55.257Z,8.83
2023-01-21T02:28:13.570Z,8.60
2023-01-21T02:29:33.218Z,8.37
2023-01-21T02:30:53.325Z,7.97
2023-01-21T02:32:07.323Z,8.47
2023-01-21T02:33:27.491Z,8.80
2023-01-21T02:34:43.092Z,9.40
2023-01-21T02:36:04.681Z,8.90
2023-01-21T02:37:10.228Z,9.10
2023-01-21T02:38:32.314Z,9.47
2023-01-21T02:39:33.588Z,9.33
2023-01-21T02:40:38.084Z,9.80
2023-01-21T02:42:03.217Z,9.73
2023-01-21T02:43:15.842Z,9.90
2023-01-21T02:44:35.618Z,9.73
2023-01-21T02:45:46.265Z,9.90
2023-01-21T02:46:52.794Z,10.40
2023-01-21T02:48:06.903Z,9.97
2023-01-21T02:49:28.537Z,10.57
2023-01-21T02:50:31.525Z,10.80
2023-01-21T02:51:32.898Z,10.50
2023-01-21T02:52:34.356Z,10.33
2023-01-21T02:53:36.001Z,10.83
2023-01-21T02:54:40.205Z,10.07
2023-01-21T02:55:43.507Z,10.57
2023-01-21T02:56:44.940Z,10.10
2023-01-21T02:57:48.277Z,10.67
2023-01-21T02:58:56.865Z,10.40
2023-01-21T02:59:58.997Z,10.70
2023-01-21T03:01:11.132Z,10.13
2023-01-21T03:02:24.228Z,10.30
2023-01-21T03:03:44.140Z,10.43
2023-01-21T03:04:55.559Z,11.20
2023-01-21T03:06:02.663Z,10.47
2023-01-21T03:07:21.908Z,11.00
2023-01-21T03:08:30.322Z,10.80
2023-01-21T03:09:32.927Z,11.80
2023-01-21T03:13:15.275Z,12.03
2023-01-21T03:14:44.506Z,12.10
2023-01-21T03:16:11.175Z,12.30
2023-01-21T03:17:28.385Z,12.67
2023-01-21T03:18:36.030Z,12.70
2023-01-21T03:19:43.073Z,13.73
2023-01-21T03:20:49.320Z,13.00
2023-01-21T03:21:50.977Z,12.90
2023-01-21T03:22:57.661Z,13.43
2023-01-21T03:23:59.354Z,13.70
2023-01-21T03:25:02.165Z,12.83
2023-01-21T03:26:04.019Z,13.30
2023-01-21T03:27:06.925Z,13.33
2023-01-21T03:28:11.443Z,12.63
2023-01-21T03:29:15.154Z,13.60
2023-01-21T03:30:17.655Z,13.33
2023-01-21T03:31:21.234Z,13.80
2023-01-21T03:32:23.736Z,14.23
2023-01-21T03:33:25.865Z,12.83
2023-01-21T03:34:28.110Z,13.10
2023-01-21T03:35:31.286Z,13.57
2023-01-21T03:36:36.084Z,13.57
2023-01-21T03:37:48.551Z,13.17
2023-01-21T03:38:52.458Z,13.10
2023-01-21T03:39:58.703Z,12.60
2023-01-21T03:41:10.473Z,12.50
2023-01-21T03:42:13.240Z,13.60
2023-01-21T03:43:14.625Z,13.87
2023-01-21T03:44:15.955Z,13.57
2023-01-21T03:45:21.907Z,13.60
2023-01-21T03:46:37.182Z,13.47
2023-01-21T03:47:39.094Z,13.50
2023-01-21T03:48:47.667Z,13.77
2023-01-21T03:50:00.400Z,14.10
2023-01-21T03:51:10.345Z,13.87
2023-01-21T03:52:13.186Z,13.40
2023-01-21T03:53:14.571Z,13.37
2023-01-21T03:54:15.967Z,13.10
2023-01-21T03:55:17.651Z,13.30
2023-01-21T03:56:19.116Z,12.83
2023-01-21T03:57:20.491Z,12.87
2023-01-21T03:58:21.934Z,12.47
2023-01-21T03:59:23.261Z,12.67
2023-01-21T04:00:24.582Z,13.37
2023-01-21T04:01:25.887Z,12.37
2023-01-21T04:02:27.303Z,13.00
2023-01-21T04:03:28.623Z,12.17
2023-01-21T04:04:29.959Z,13.27
2023-01-21T04:05:31.238Z,12.20
2023-01-21T04:06:33.207Z,12.23
2023-01-21T04:07:34.616Z,12.93
2023-01-21T04:08:35.913Z,13.37
2023-01-21T04:09:37.249Z,12.73
2023-01-21T04:10:38.513Z,13.13
2023-01-21T04:11:39.869Z,12.70
2023-01-21T04:12:41.254Z,12.97
2023-01-21T04:13:42.545Z,12.10
2023-01-21T04:14:43.989Z,12.57
2023-01-21T04:15:45.342Z,12.13
2023-01-21T04:16:46.663Z,12.37
2023-01-21T04:17:48.056Z,12.60
2023-01-21T04:18:49.521Z,12.93
2023-01-21T04:19:50.829Z,12.13
2023-01-21T04:20:52.226Z,11.87
2023-01-21T04:21:53.619Z,12.23
2023-01-21T04:22:55.019Z,12.47
2023-01-21T04:23:56.494Z,12.17
2023-01-21T04:24:57.860Z,12.07
2023-01-21T04:25:59.249Z,12.17
2023-01-21T04:27:00.586Z,12.03
2023-01-21T04:28:01.886Z,11.90
2023-01-21T04:29:03.235Z,12.10
2023-01-21T04:30:04.770Z,12.10
2023-01-21T04:31:06.232Z,11.70
2023-01-21T04:32:07.569Z,12.37
2023-01-21T04:33:08.992Z,12.63
2023-01-21T04:34:10.640Z,12.87
2023-01-21T04:35:12.033Z,12.77
2023-01-21T04:36:13.674Z,12.57
2023-01-21T04:37:15.080Z,13.07
2023-01-21T04:38:16.395Z,12.67
2023-01-21T04:39:17.731Z,12.03
2023-01-21T04:40:19.161Z,12.30
2023-01-21T04:41:20.503Z,12.73
2023-01-21T04:42:21.830Z,13.03
2023-01-21T04:43:23.145Z,12.50
2023-01-21T04:44:24.569Z,12.60
2023-01-21T04:45:25.899Z,12.67
2023-01-21T04:46:27.177Z,13.53
2023-01-21T04:47:28.622Z,12.40
2023-01-21T04:48:30.215Z,12.57
2023-01-21T04:49:31.574Z,11.40
2023-01-21T04:50:32.980Z,12.03
2023-01-21T04:51:34.331Z,12.07
2023-01-21T04:52:35.653Z,12.50
2023-01-21T04:53:36.948Z,12.13
2023-01-21T04:54:38.258Z,12.43
2023-01-21T04:55:39.573Z,13.30
2023-01-21T04:56:40.888Z,12.50
2023-01-21T04:57:42.189Z,12.00
2023-01-21T04:58:43.564Z,12.47
2023-01-21T04:59:44.987Z,12.27
2023-01-21T05:00:46.710Z,12.77
2023-01-21T05:01:48.043Z,13.30
2023-01-21T05:02:49.577Z,13.17
2023-01-21T05:03:52.058Z,13.40
2023-01-21T05:04:53.371Z,13.33
2023-01-21T05:05:54.745Z,13.70
2023-01-21T05:06:56.576Z,12.70
2023-01-21T05:07:57.906Z,12.83
2023-01-21T05:08:59.198Z,12.67
2023-01-21T05:10:00.616Z,12.87
2023-01-21T05:11:01.974Z,13.17
2023-01-21T05:12:03.570Z,11.93
2023-01-21T05:13:04.905Z,11.50
2023-01-21T05:14:06.275Z,12.37
2023-01-21T05:15:07.930Z,12.27
2023-01-21T05:16:10.050Z,11.67
2023-01-21T05:17:11.463Z,12.47
2023-01-21T05:18:12.805Z,12.70
2023-01-21T05:19:14.180Z,11.90
2023-01-21T05:20:16.169Z,13.17
2023-01-21T05:21:17.597Z,13.83
2023-01-21T05:22:19.217Z,12.57
2023-01-21T05:23:20.572Z,14.30
2023-01-21T05:24:21.904Z,14.67
2023-01-21T05:25:23.242Z,14.43
2023-01-21T05:26:24.595Z,14.03
2023-01-21T05:27:26.101Z,13.73
2023-01-21T05:28:27.423Z,13.63
2023-01-21T05:29:29.075Z,13.77
2023-01-21T05:30:30.605Z,13.00
2023-01-21T05:31:32.155Z,13.07
2023-01-21T05:32:33.524Z,12.40
2023-01-21T05:33:35.786Z,12.23
2023-01-21T05:34:37.097Z,12.43
2023-01-21T05:35:38.457Z,12.57
2023-01-21T05:36:39.770Z,11.80
2023-01-21T05:37:41.319Z,12.20
2023-01-21T05:38:42.683Z,12.63
2023-01-21T05:39:44.560Z,12.20
2023-01-21T05:40:45.908Z,12.13
2023-01-21T05:41:47.237Z,12.13
2023-01-21T05:42:48.583Z,12.27
2023-01-21T05:43:50.008Z,12.97
2023-01-21T05:44:51.303Z,12.60
2023-01-21T05:45:52.821Z,13.50
2023-01-21T05:46:54.194Z,12.30
2023-01-21T05:47:55.624Z,13.00
2023-01-21T05:48:56.976Z,12.87
2023-01-21T05:49:58.348Z,12.90
2023-01-21T05:50:59.699Z,13.53
2023-01-21T05:52:01.349Z,14.20
2023-01-21T05:53:02.678Z,14.43
2023-01-21T05:54:04.100Z,14.00
2023-01-21T05:55:05.662Z,13.50
2023-01-21T05:56:07.159Z,13.03
2023-01-21T05:57:08.497Z,13.27
2023-01-21T05:58:09.820Z,14.97
2023-01-21T05:59:11.306Z,13.50
2023-01-21T06:00:12.933Z,14.10
2023-01-21T06:01:14.308Z,13.43
2023-01-21T06:02:15.704Z,13.57
2023-01-21T06:03:17.460Z,13.03
2023-01-21T06:04:18.897Z,12.90
2023-01-21T06:05:20.244Z,13.50
2023-01-21T06:06:21.637Z,13.40
2023-01-21T06:07:23.055Z,13.37
2023-01-21T06:08:24.338Z,13.00
2023-01-21T06:09:25.741Z,13.50
2023-01-21T06:10:27.321Z,13.30
2023-01-21T06:11:28.630Z,13.80
2023-01-21T06:12:30.055Z,12.63
2023-01-21T06:13:31.501Z,12.50
2023-01-21T06:14:32.803Z,12.87
2023-01-21T06:15:34.186Z,13.20
2023-01-21T06:16:35.531Z,13.50
2023-01-21T06:17:38.487Z,12.97
2023-01-21T06:18:39.853Z,12.97
2023-01-21T06:19:41.196Z,12.20
2023-01-21T06:20:42.539Z,13.03
2023-01-21T06:21:43.881Z,13.10
2023-01-21T06:22:45.252Z,13.43
2023-01-21T06:23:46.540Z,12.40
2023-01-21T06:24:47.879Z,12.13
2023-01-21T06:25:49.262Z,12.13
2023-01-21T06:26:50.665Z,12.13
2023-01-21T06:27:53.856Z,11.67
2023-01-21T06:28:55.798Z,11.57
2023-01-21T06:29:57.208Z,12.13
2023-01-21T06:30:58.744Z,11.70
2023-01-21T06:32:00.209Z,12.17
2023-01-21T06:33:01.661Z,11.23
2023-01-21T06:34:02.997Z,12.93
2023-01-21T06:35:04.823Z,13.37
2023-01-21T06:36:06.315Z,11.77
2023-01-21T06:37:07.869Z,11.93
2023-01-21T06:38:09.287Z,11.70
2023-01-21T06:39:10.947Z,13.60
2023-01-21T06:40:12.970Z,11.53
2023-01-21T06:41:14.323Z,12.30
2023-01-21T06:42:17.901Z,12.50
2023-01-21T06:43:19.394Z,13.60
2023-01-21T06:44:20.779Z,13.43
2023-01-21T06:45:22.138Z,13.10
2023-01-21T06:46:23.508Z,12.93
2023-01-21T06:47:24.861Z,13.63
2023-01-21T06:48:26.288Z,13.47
2023-01-21T06:49:27.676Z,13.40
2023-01-21T06:50:29.008Z,12.87
2023-01-21T06:51:30.319Z,13.93
2023-01-21T06:52:31.712Z,13.07
2023-01-21T06:53:33.055Z,13.70
2023-01-21T06:54:34.401Z,13.20
2023-01-21T06:55:35.718Z,12.97
2023-01-21T06:56:37.071Z,12.93
2023-01-21T06:57:38.976Z,12.23
2023-01-21T06:58:40.294Z,13.33
2023-01-21T06:59:41.642Z,13.70
2023-01-21T07:00:43.121Z,14.43
2023-01-21T07:01:44.447Z,13.10
2023-01-21T07:02:45.886Z,13.37
2023-01-21T07:03:47.233Z,13.03
2023-01-21T07:04:50.826Z,13.70
2023-01-21T07:05:52.286Z,13.77
2023-01-21T07:06:53.860Z,13.15
2023-01-21T07:07:56.028Z,13.53
2023-01-21T07:08:57.388Z,13.53
2023-01-21T07:09:58.691Z,13.40
2023-01-21T07:11:00.121Z,13.33
2023-01-21T07:12:01.512Z,14.23
2023-01-21T07:13:02.835Z,13.30
2023-01-21T07:14:04.169Z,14.10
2023-01-21T07:15:05.869Z,14.33
2023-01-21T07:16:07.566Z,14.07
2023-01-21T07:17:08.923Z,13.17
2023-01-21T07:18:10.268Z,14.50
2023-01-21T07:19:11.598Z,13.20
2023-01-21T07:20:12.897Z,12.73
2023-01-21T07:21:14.237Z,12.77
2023-01-21T07:22:15.545Z,13.40
2023-01-21T07:23:16.940Z,13.63
2023-01-21T07:24:18.281Z,14.77
2023-01-21T07:25:19.741Z,14.37
2023-01-21T07:26:21.240Z,14.07
2023-01-21T07:27:22.631Z,15.27
2023-01-21T07:28:23.950Z,14.23
2023-01-21T07:29:25.364Z,15.53
2023-01-21T07:30:26.759Z,15.73
2023-01-21T07:31:28.107Z,15.43
2023-01-21T07:32:29.522Z,15.17
2023-01-21T07:33:30.948Z,14.43
2023-01-21T07:34:32.339Z,15.13
2023-01-21T07:35:33.853Z,14.67
2023-01-21T07:36:35.194Z,15.43
2023-01-21T07:37:36.605Z,16.17
2023-01-21T07:38:38.099Z,15.10
2023-01-21T07:39:39.417Z,15.37
2023-01-21T07:40:40.723Z,16.20
2023-01-21T07:41:42.053Z,15.20
2023-01-21T07:42:50.518Z,16.27
2023-01-21T07:43:51.886Z,15.33
2023-01-21T07:44:53.180Z,16.43
2023-01-21T07:45:58.491Z,15.87
2023-01-21T07:47:01.401Z,16.60
2023-01-21T07:48:02.871Z,16.20
2023-01-21T07:49:04.356Z,15.07
2023-01-21T07:50:08.504Z,15.53
2023-01-21T07:51:10.125Z,15.50
2023-01-21T07:52:11.469Z,15.43
2023-01-21T07:53:13.085Z,15.27
2023-01-21T07:54:14.768Z,15.13
2023-01-21T07:55:16.552Z,17.23
2023-01-21T07:56:18.472Z,15.83
2023-01-21T07:57:19.880Z,15.10
2023-01-21T07:58:21.355Z,15.73
2023-01-21T07:59:22.826Z,15.83
2023-01-21T08:00:27.027Z,17.30
2023-01-21T08:01:30.988Z,16.53
2023-01-21T08:02:32.461Z,17.30
2023-01-21T08:03:34.546Z,16.77
2023-01-21T08:04:35.904Z,18.00
2023-01-21T08:05:37.235Z,17.97
2023-01-21T08:06:41.040Z,17.60
2023-01-21T08:07:42.384Z,17.63
2023-01-21T08:08:43.677Z,17.43
2023-01-21T08:09:45.090Z,16.03
2023-01-21T08:10:51.033Z,16.03
2023-01-21T08:11:53.468Z,16.07
2023-01-21T08:12:54.947Z,15.83
2023-01-21T08:13:56.248Z,15.40
2023-01-21T08:14:57.632Z,15.73
2023-01-21T08:15:59.071Z,16.03
2023-01-21T08:17:00.746Z,15.10
2023-01-21T08:18:02.140Z,19.27
2023-01-21T08:19:03.515Z,30.47
2023-01-21T08:20:05.429Z,38.17
2023-01-21T08:21:06.750Z,43.13
2023-01-21T08:22:08.066Z,34.30
2023-01-21T08:23:09.540Z,42.20
2023-01-21T08:24:10.855Z,37.30
2023-01-21T08:25:12.329Z,22.90
2023-01-21T08:26:14.178Z,19.27
2023-01-21T08:27:15.597Z,18.27
2023-01-21T08:28:17.039Z,17.47
2023-01-21T08:29:18.382Z,16.43
2023-01-21T08:30:19.765Z,15.67
2023-01-21T08:31:21.596Z,17.20
2023-01-21T08:32:23.116Z,17.13
2023-01-21T08:33:24.505Z,15.57
2023-01-21T08:34:26.034Z,16.43
2023-01-21T08:35:27.553Z,15.93
2023-01-21T08:36:28.951Z,16.27
2023-01-21T08:37:30.360Z,16.37
2023-01-21T08:38:32.014Z,16.07
2023-01-21T08:39:33.308Z,16.70
2023-01-21T08:40:34.710Z,16.83
2023-01-21T08:41:36.382Z,16.13
2023-01-21T08:42:38.007Z,16.30
2023-01-21T08:43:41.087Z,16.60
2023-01-21T08:44:46.379Z,15.50
2023-01-21T08:45:47.748Z,16.80
2023-01-21T08:46:49.225Z,17.03
2023-01-21T08:47:50.616Z,17.33
2023-01-21T08:48:52.027Z,18.47
2023-01-21T08:49:53.325Z,16.97
2023-01-21T08:50:58.063Z,17.63
2023-01-21T08:51:59.387Z,17.17
2023-01-21T08:53:00.789Z,16.97
2023-01-21T08:54:02.331Z,16.83
2023-01-21T08:55:03.692Z,15.23
2023-01-21T08:56:05.388Z,16.23
2023-01-21T08:57:06.868Z,17.07
2023-01-21T08:58:08.585Z,16.17
2023-01-21T08:59:13.617Z,16.60
2023-01-21T09:00:21.635Z,16.83
2023-01-21T09:01:29.198Z,16.93
2023-01-21T09:02:31.286Z,16.13
2023-01-21T09:03:36.533Z,16.20
2023-01-21T09:04:38.407Z,16.20
2023-01-21T09:06:11.166Z,17.10
2023-01-21T09:07:14.481Z,16.00
2023-01-21T09:08:16.245Z,17.47
2023-01-21T09:09:18.163Z,16.93
2023-01-21T09:10:38.457Z,15.90
2023-01-21T09:11:40.003Z,18.03
2023-01-21T09:12:47.698Z,17.27
2023-01-21T09:13:49.281Z,17.43
2023-01-21T09:14:50.890Z,17.63
2023-01-21T09:15:55.371Z,17.90
2023-01-21T09:16:56.777Z,17.50
2023-01-21T09:17:58.430Z,17.47
2023-01-21T09:19:03.166Z,16.43
2023-01-21T09:20:09.248Z,17.23
2023-01-21T09:21:13.977Z,17.47
2023-01-21T09:22:16.672Z,17.77
2023-01-21T09:23:31.491Z,16.93
2023-01-21T09:24:35.152Z,17.83
2023-01-21T09:25:36.883Z,17.97
2023-01-21T09:26:44.196Z,17.40
2023-01-21T09:27:45.972Z,17.17
2023-01-21T09:28:51.955Z,17.77
2023-01-21T09:29:54.111Z,18.40
2023-01-21T09:30:56.995Z,17.87
2023-01-21T09:31:59.316Z,18.47
2023-01-21T09:33:00.794Z,18.83
2023-01-21T09:34:04.062Z,18.23
2023-01-21T09:35:06.652Z,18.50
2023-01-21T09:36:16.427Z,18.67
2023-01-21T09:37:21.087Z,17.33
2023-01-21T09:38:36.843Z,17.03
2023-01-21T09:39:45.110Z,17.83
2023-01-21T09:40:48.531Z,18.40
2023-01-21T09:43:01.407Z,18.03
2023-01-21T09:44:57.448Z,17.97
2023-01-21T09:47:15.743Z,17.97
2023-01-21T09:49:17.978Z,17.57
2023-01-21T09:53:17.643Z,16.63
2023-01-21T09:54:48.170Z,17.83
2023-01-21T09:56:06.683Z,18.03
2023-01-21T09:58:11.180Z,18.90
2023-01-21T09:59:52.590Z,17.63
2023-01-21T10:01:11.212Z,18.33
2023-01-21T10:05:01.828Z,18.37
2023-01-21T10:07:10.550Z,19.10
2023-01-21T10:12:44.926Z,16.93
2023-01-21T10:17:06.085Z,18.37
2023-01-21T10:21:57.688Z,19.20
2023-01-21T10:25:53.636Z,17.77
2023-01-21T10:27:20.613Z,18.87
2023-01-21T10:28:31.693Z,19.70
2023-01-21T10:29:56.393Z,18.90
2023-01-21T10:31:23.406Z,19.70
2023-01-21T10:32:46.181Z,22.93
2023-01-21T10:34:13.007Z,18.93
2023-01-21T10:35:36.872Z,18.13
2023-01-21T10:36:59.042Z,19.10
2023-01-21T10:40:37.091Z,19.83
2023-01-21T10:43:18.647Z,19.97
2023-01-21T10:44:17.306Z,17.97
2023-01-21T10:45:51.236Z,19.03
2023-01-21T10:47:18.442Z,20.20
2023-01-21T10:48:28.730Z,19.57
2023-01-21T10:49:49.648Z,20.20
2023-01-21T10:51:20.923Z,20.83
2023-01-21T10:52:32.342Z,19.20
2023-01-21T10:53:59.665Z,19.67
2023-01-21T10:55:07.797Z,19.90
2023-01-21T10:56:34.779Z,20.07
2023-01-21T10:57:50.978Z,20.70
2023-01-21T10:59:05.602Z,20.40
2023-01-21T11:01:24.919Z,20.93
2023-01-21T11:02:55.676Z,19.27
2023-01-21T11:03:59.492Z,22.17
2023-01-21T11:06:41.435Z,21.90
2023-01-21T11:07:54.149Z,20.97
2023-01-21T11:09:20.535Z,20.80
2023-01-21T11:10:23.727Z,20.47
2023-01-21T11:11:40.891Z,19.60
2023-01-21T11:12:42.725Z,20.47
2023-01-21T11:13:44.344Z,20.87
2023-01-21T11:14:58.515Z,21.40
2023-01-21T11:16:04.768Z,20.43
2023-01-21T11:17:06.558Z,21.73
2023-01-21T11:18:26.651Z,20.67
2023-01-21T11:19:36.420Z,21.43
2023-01-21T11:20:42.365Z,21.57
2023-01-21T11:22:00.471Z,20.57
2023-01-21T11:23:04.093Z,20.53
2023-01-21T11:24:23.279Z,19.43
2023-01-21T11:25:31.351Z,19.90
2023-01-21T11:26:34.053Z,19.77
2023-01-21T11:27:37.741Z,19.30
2023-01-21T11:28:39.431Z,20.27
2023-01-21T11:29:41.262Z,21.57
2023-01-21T11:30:51.019Z,20.63
2023-01-21T11:32:01.067Z,21.10
2023-01-21T11:33:21.440Z,23.77
2023-01-21T11:34:23.702Z,22.43
2023-01-21T11:35:29.565Z,21.00
2023-01-21T11:36:31.317Z,21.43
2023-01-21T11:37:36.375Z,21.70
2023-01-21T11:40:43.390Z,23.00
2023-01-21T11:42:21.449Z,21.13
2023-01-21T11:43:47.351Z,22.07
2023-01-21T11:48:25.586Z,20.90
2023-01-21T11:50:03.046Z,20.03
2023-01-21T11:52:27.139Z,19.63
2023-01-21T11:53:52.226Z,19.30
2023-01-21T11:57:37.047Z,17.97
2023-01-21T11:59:18.942Z,19.37
2023-01-21T12:00:46.983Z,20.47
2023-01-21T12:02:09.670Z,27.30
2023-01-21T12:03:28.642Z,21.80
2023-01-21T12:04:45.321Z,33.10
2023-01-21T12:06:03.557Z,21.30
2023-01-21T12:07:35.425Z,18.60
2023-01-21T12:12:50.120Z,19.93
2023-01-21T12:14:25.930Z,18.87
2023-01-21T12:15:59.223Z,17.87
2023-01-21T12:17:30.318Z,19.10
2023-01-21T12:18:40.847Z,18.97
2023-01-21T12:19:56.215Z,18.87
2023-01-21T12:21:04.953Z,19.67
2023-01-21T12:22:25.425Z,19.03
2023-01-21T12:23:39.778Z,19.50
2023-01-21T12:25:02.394Z,19.60
2023-01-21T12:26:13.371Z,20.00
2023-01-21T12:27:23.528Z,19.93
2023-01-21T12:28:48.877Z,19.57
2023-01-21T12:30:05.991Z,18.70
2023-01-21T12:31:10.595Z,18.57
2023-01-21T12:32:30.764Z,19.20
2023-01-21T12:33:32.546Z,18.77
2023-01-21T12:34:37.635Z,18.67
2023-01-21T12:35:41.863Z,19.53
2023-01-21T12:36:46.097Z,18.43
2023-01-21T12:37:53.475Z,18.70
2023-01-21T12:39:08.586Z,18.13
2023-01-21T12:40:16.574Z,18.87
2023-01-21T12:41:18.079Z,19.07
2023-01-21T12:42:25.190Z,19.93
2023-01-21T12:43:33.425Z,19.97
2023-01-21T12:44:37.704Z,19.33
2023-01-21T12:45:56.728Z,20.67
2023-01-21T12:47:01.179Z,20.23
2023-01-21T12:48:23.152Z,20.97
2023-01-21T12:49:28.134Z,19.47
2023-01-21T12:50:36.065Z,20.03
2023-01-21T12:51:40.831Z,18.77
2023-01-21T12:52:50.452Z,20.37
2023-01-21T12:53:55.277Z,19.43
2023-01-21T12:55:16.679Z,19.23
2023-01-21T12:56:28.103Z,18.93
2023-01-21T12:57:39.527Z,19.17
2023-01-21T12:58:43.767Z,18.07
2023-01-21T12:59:48.921Z,19.40
2023-01-21T13:00:51.658Z,20.43
2023-01-21T13:02:14.586Z,19.83
2023-01-21T13:03:34.806Z,19.63
2023-01-21T13:04:58.155Z,20.07
2023-01-21T13:06:02.959Z,18.40
2023-01-21T13:07:14.684Z,18.60
2023-01-21T13:08:25.113Z,19.93
2023-01-21T13:09:29.512Z,18.47
2023-01-21T13:10:33.498Z,20.67
2023-01-21T13:11:43.906Z,21.67
2023-01-21T13:12:48.576Z,20.23
2023-01-21T13:13:49.992Z,18.83
2023-01-21T13:14:55.221Z,20.10
2023-01-21T13:15:59.394Z,20.13
2023-01-21T13:17:03.029Z,19.80
2023-01-21T13:18:18.471Z,19.43
2023-01-21T13:19:19.924Z,18.77
2023-01-21T13:20:22.148Z,19.77
2023-01-21T13:21:41.798Z,18.90
2023-01-21T13:22:55.209Z,18.43
2023-01-21T13:24:12.300Z,17.67
2023-01-21T13:25:26.847Z,18.53
2023-01-21T13:26:31.881Z,17.53
2023-01-21T13:27:56.379Z,17.10
2023-01-21T13:29:32.936Z,16.30
2023-01-21T13:31:00.049Z,17.67
2023-01-21T13:32:22.192Z,17.50
2023-01-21T13:33:38.913Z,17.33
2023-01-21T13:34:47.285Z,18.27
2023-01-21T13:35:48.629Z,17.77
2023-01-21T13:36:56.335Z,15.97
2023-01-21T13:37:57.604Z,17.07
2023-01-21T13:39:08.154Z,16.83
2023-01-21T13:40:09.497Z,15.83
2023-01-21T13:41:17.741Z,16.80
2023-01-21T13:42:34.835Z,17.33
2023-01-21T13:43:44.841Z,15.90
2023-01-21T13:45:05.371Z,16.10
2023-01-21T13:46:38.105Z,15.50
2023-01-21T13:47:43.803Z,15.30
2023-01-21T13:48:51.451Z,14.57
2023-01-21T13:49:58.901Z,15.83
2023-01-21T13:51:09.429Z,15.87
2023-01-21T13:52:27.173Z,15.47
2023-01-21T13:53:35.187Z,16.00
2023-01-21T13:54:45.635Z,16.23
2023-01-21T13:55:59.591Z,15.83
2023-01-21T13:57:07.413Z,15.50
2023-01-21T13:58:10.347Z,15.03
2023-01-21T13:59:27.076Z,15.67
2023-01-21T14:00:30.296Z,15.40
2023-01-21T14:01:31.644Z,14.77
2023-01-21T14:02:39.047Z,14.33
2023-01-21T14:03:57.876Z,14.97
2023-01-21T14:05:04.820Z,14.50
2023-01-21T14:06:06.228Z,14.30
2023-01-21T14:07:10.064Z,14.57
2023-01-21T14:08:14.184Z,14.83
2023-01-21T14:09:20.702Z,14.07
2023-01-21T14:10:22.585Z,14.63
2023-01-21T14:11:34.629Z,13.93
2023-01-21T14:12:54.797Z,13.53
2023-01-21T14:14:03.669Z,13.57
2023-01-21T14:15:11.031Z,13.97
2023-01-21T14:16:26.813Z,13.93
2023-01-21T14:17:34.109Z,14.03
2023-01-21T14:18:47.351Z,13.37
2023-01-21T14:20:04.074Z,14.67
2023-01-21T14:21:21.728Z,14.80
2023-01-21T14:22:25.909Z,14.27
2023-01-21T14:23:42.393Z,14.20
2023-01-21T14:25:10.208Z,13.87
2023-01-21T14:26:17.431Z,14.37
2023-01-21T14:27:37.462Z,14.60
2023-01-21T14:28:48.620Z,13.77
2023-01-21T14:29:55.456Z,14.33
2023-01-21T14:31:15.345Z,14.47
2023-01-21T14:32:39.866Z,13.37
2023-01-21T14:33:44.564Z,14.10
2023-01-21T14:34:48.664Z,14.77
2023-01-21T14:35:50.127Z,14.00
2023-01-21T14:37:10.291Z,14.57
2023-01-21T14:38:24.628Z,14.77
2023-01-21T14:39:33.470Z,15.10
2023-01-21T14:40:35.578Z,14.87
2023-01-21T14:41:55.668Z,14.87
2023-01-21T14:42:57.846Z,14.70
2023-01-21T14:43:59.176Z,15.20
2023-01-21T14:45:04.900Z,14.90
2023-01-21T14:46:26.296Z,15.20
2023-01-21T14:47:30.469Z,15.53
2023-01-21T14:48:38.233Z,16.00
2023-01-21T14:49:40.683Z,15.43
2023-01-21T14:50:46.044Z,14.30
2023-01-21T14:51:48.852Z,14.07
2023-01-21T14:52:50.281Z,15.60
2023-01-21T14:53:52.516Z,16.37
2023-01-21T14:54:53.899Z,14.87
2023-01-21T14:56:15.930Z,15.13
2023-01-21T14:57:29.290Z,14.57
2023-01-21T14:58:30.855Z,14.40
2023-01-21T14:59:34.788Z,15.60
2023-01-21T15:00:37.122Z,15.33